sensor_id;sensor_type;location;lat;lon;timestamp;temperature;humidity
23403;DHT22;11874;48.228;11.684;2022-09-09T00:01:09;19.10;99.90
23403;DHT22;11874;48.228;11.684;2022-09-09T00:04:03;19.10;99.90
23403;DHT22;11874;48.228;11.684;2022-09-09T00:06:52;19.10;99.90
23403;DHT22;11874;48.228;11.684;2022-09-09T00:15:38;19.00;99.90
23403;DHT22;11874;48.228;11.684;2022-09-09T00:18:47;18.90;99.90
23403;DHT22;11874;48.228;11.684;2022-09-09T00:21:41;18.90;99.90
23403;DHT22;11874;48.228;11.684;2022-09-09T00:24:34;18.90;99.90
23403;DHT22;11874;48.228;11.684;2022-09-09T00:27:36;18.90;99.90
23403;DHT22;11874;48.228;11.684;2022-09-09T00:30:38;18.90;99.90
23403;DHT22;11874;48.228;11.684;2022-09-09T00:33:29;18.90;99.90
23403;DHT22;11874;48.228;11.684;2022-09-09T00:36:24;18.90;99.90
23403;DHT22;11874;48.228;11.684;2022-09-09T00:39:32;18.90;99.90
23403;DHT22;11874;48.228;11.684;2022-09-09T00:42:24;18.80;99.90
23403;DHT22;11874;48.228;11.684;2022-09-09T00:45:17;18.90;99.90
23403;DHT22;11874;48.228;11.684;2022-09-09T00:48:31;18.90;99.90
23403;DHT22;11874;48.228;11.684;2022-09-09T00:51:42;18.80;99.90
23403;DHT22;11874;48.228;11.684;2022-09-09T00:55:07;18.80;99.90
23403;DHT22;11874;48.228;11.684;2022-09-09T00:58:59;18.80;99.90
23403;DHT22;11874;48.228;11.684;2022-09-09T01:01:12;18.80;99.90
23403;DHT22;11874;48.228;11.684;2022-09-09T01:07:10;18.80;99.90
23403;DHT22;11874;48.228;11.684;2022-09-09T01:10:14;18.70;99.90
23403;DHT22;11874;48.228;11.684;2022-09-09T01:13:11;18.70;99.90
23403;DHT22;11874;48.228;11.684;2022-09-09T01:15:56;18.70;99.90
23403;DHT22;11874;48.228;11.684;2022-09-09T01:18:44;18.70;99.90
23403;DHT22;11874;48.228;11.684;2022-09-09T01:21:56;18.70;99.90
23403;DHT22;11874;48.228;11.684;2022-09-09T01:34:30;18.60;99.90
23403;DHT22;11874;48.228;11.684;2022-09-09T01:40:27;18.60;99.90
23403;DHT22;11874;48.228;11.684;2022-09-09T01:43:33;18.60;99.90
23403;DHT22;11874;48.228;11.684;2022-09-09T01:46:25;18.60;99.90
23403;DHT22;11874;48.228;11.684;2022-09-09T01:49:16;18.60;99.90
23403;DHT22;11874;48.228;11.684;2022-09-09T01:55:05;18.60;99.90
23403;DHT22;11874;48.228;11.684;2022-09-09T01:57:57;18.60;99.90
23403;DHT22;11874;48.228;11.684;2022-09-09T02:00:55;18.60;99.90
23403;DHT22;11874;48.228;11.684;2022-09-09T02:03:52;18.60;99.90
23403;DHT22;11874;48.228;11.684;2022-09-09T02:06:50;18.50;99.90
23403;DHT22;11874;48.228;11.684;2022-09-09T02:09:39;18.50;99.90
23403;DHT22;11874;48.228;11.684;2022-09-09T02:15:55;18.40;99.90
23403;DHT22;11874;48.228;11.684;2022-09-09T02:22:12;18.50;99.90
23403;DHT22;11874;48.228;11.684;2022-09-09T02:26:39;18.40;99.90
23403;DHT22;11874;48.228;11.684;2022-09-09T02:28:51;18.40;99.90
23403;DHT22;11874;48.228;11.684;2022-09-09T02:45:19;18.40;99.90
23403;DHT22;11874;48.228;11.684;2022-09-09T02:47:59;18.40;99.90
23403;DHT22;11874;48.228;11.684;2022-09-09T02:54:24;18.40;99.90
23403;DHT22;11874;48.228;11.684;2022-09-09T03:00:51;18.40;99.90
23403;DHT22;11874;48.228;11.684;2022-09-09T03:03:51;18.30;99.90
23403;DHT22;11874;48.228;11.684;2022-09-09T03:07:24;18.30;99.90
23403;DHT22;11874;48.228;11.684;2022-09-09T03:10:08;18.30;99.90
23403;DHT22;11874;48.228;11.684;2022-09-09T03:13:13;18.20;99.90
23403;DHT22;11874;48.228;11.684;2022-09-09T03:15:55;18.20;99.90
23403;DHT22;11874;48.228;11.684;2022-09-09T03:18:54;18.30;99.90
23403;DHT22;11874;48.228;11.684;2022-09-09T03:21:56;18.20;99.90
23403;DHT22;11874;48.228;11.684;2022-09-09T03:24:41;18.30;99.90
23403;DHT22;11874;48.228;11.684;2022-09-09T03:27:23;18.20;99.90
23403;DHT22;11874;48.228;11.684;2022-09-09T03:30:00;18.20;99.90
23403;DHT22;11874;48.228;11.684;2022-09-09T03:33:01;18.20;99.90
23403;DHT22;11874;48.228;11.684;2022-09-09T03:35:57;18.20;99.90
23403;DHT22;11874;48.228;11.684;2022-09-09T03:38:49;18.20;99.90
23403;DHT22;11874;48.228;11.684;2022-09-09T03:41:49;18.20;99.90
23403;DHT22;11874;48.228;11.684;2022-09-09T03:44:55;18.20;99.90
23403;DHT22;11874;48.228;11.684;2022-09-09T03:47:52;18.20;99.90
23403;DHT22;11874;48.228;11.684;2022-09-09T03:50:50;18.20;99.90
23403;DHT22;11874;48.228;11.684;2022-09-09T03:54:16;18.20;99.90
23403;DHT22;11874;48.228;11.684;2022-09-09T03:57:16;18.20;99.90
23403;DHT22;11874;48.228;11.684;2022-09-09T03:59:59;18.20;99.90
23403;DHT22;11874;48.228;11.684;2022-09-09T04:02:52;18.20;99.90
23403;DHT22;11874;48.228;11.684;2022-09-09T04:08:48;18.20;99.90
23403;DHT22;11874;48.228;11.684;2022-09-09T04:11:46;18.20;99.90
23403;DHT22;11874;48.228;11.684;2022-09-09T04:15:17;18.20;99.90
23403;DHT22;11874;48.228;11.684;2022-09-09T04:17:56;18.20;99.90
23403;DHT22;11874;48.228;11.684;2022-09-09T04:20:45;18.20;99.90
23403;DHT22;11874;48.228;11.684;2022-09-09T04:23:29;18.30;99.90
23403;DHT22;11874;48.228;11.684;2022-09-09T04:29:22;18.30;99.90
23403;DHT22;11874;48.228;11.684;2022-09-09T04:32:01;18.30;99.90
23403;DHT22;11874;48.228;11.684;2022-09-09T04:34:45;18.30;99.90
23403;DHT22;11874;48.228;11.684;2022-09-09T04:37:41;18.30;99.90
23403;DHT22;11874;48.228;11.684;2022-09-09T04:40:30;18.20;99.90
23403;DHT22;11874;48.228;11.684;2022-09-09T04:43:17;18.30;99.90
23403;DHT22;11874;48.228;11.684;2022-09-09T04:49:00;18.30;99.90
23403;DHT22;11874;48.228;11.684;2022-09-09T04:52:11;18.20;99.90
23403;DHT22;11874;48.228;11.684;2022-09-09T04:54:56;18.30;99.90
23403;DHT22;11874;48.228;11.684;2022-09-09T04:57:51;18.20;99.90
23403;DHT22;11874;48.228;11.684;2022-09-09T05:00:36;18.20;99.90
23403;DHT22;11874;48.228;11.684;2022-09-09T05:03:23;18.20;99.90
23403;DHT22;11874;48.228;11.684;2022-09-09T05:06:08;18.20;99.90
23403;DHT22;11874;48.228;11.684;2022-09-09T05:08:50;18.20;99.90
23403;DHT22;11874;48.228;11.684;2022-09-09T05:11:24;18.20;99.90
23403;DHT22;11874;48.228;11.684;2022-09-09T05:14:38;18.10;99.90
23403;DHT22;11874;48.228;11.684;2022-09-09T05:17:21;18.10;99.90
23403;DHT22;11874;48.228;11.684;2022-09-09T05:20:20;18.10;99.90
23403;DHT22;11874;48.228;11.684;2022-09-09T05:23:07;18.10;99.90
23403;DHT22;11874;48.228;11.684;2022-09-09T05:25:42;18.10;99.90
23403;DHT22;11874;48.228;11.684;2022-09-09T05:28:33;18.10;99.90
23403;DHT22;11874;48.228;11.684;2022-09-09T05:31:29;18.10;99.90
23403;DHT22;11874;48.228;11.684;2022-09-09T05:34:24;18.10;99.90
23403;DHT22;11874;48.228;11.684;2022-09-09T05:37:20;18.10;99.90
23403;DHT22;11874;48.228;11.684;2022-09-09T05:43:17;18.10;99.90
23403;DHT22;11874;48.228;11.684;2022-09-09T05:49:05;18.10;99.90
23403;DHT22;11874;48.228;11.684;2022-09-09T05:52:03;18.10;99.90
23403;DHT22;11874;48.228;11.684;2022-09-09T05:54:46;18.10;99.90
23403;DHT22;11874;48.228;11.684;2022-09-09T05:57:31;18.10;99.90
23403;DHT22;11874;48.228;11.684;2022-09-09T06:03:43;18.10;99.90
23403;DHT22;11874;48.228;11.684;2022-09-09T06:06:37;18.20;99.90
23403;DHT22;11874;48.228;11.684;2022-09-09T06:09:35;18.10;99.90
23403;DHT22;11874;48.228;11.684;2022-09-09T06:15:48;18.20;99.90
23403;DHT22;11874;48.228;11.684;2022-09-09T06:19:00;18.20;99.90
23403;DHT22;11874;48.228;11.684;2022-09-09T06:22:17;18.20;99.90
23403;DHT22;11874;48.228;11.684;2022-09-09T06:25:02;18.20;99.90
23403;DHT22;11874;48.228;11.684;2022-09-09T06:28:04;18.20;99.90
23403;DHT22;11874;48.228;11.684;2022-09-09T06:30:59;18.20;99.90
23403;DHT22;11874;48.228;11.684;2022-09-09T06:33:45;18.30;99.90
23403;DHT22;11874;48.228;11.684;2022-09-09T06:36:40;18.30;99.90
23403;DHT22;11874;48.228;11.684;2022-09-09T06:39:38;18.30;99.90
23403;DHT22;11874;48.228;11.684;2022-09-09T06:42:34;18.30;99.90
23403;DHT22;11874;48.228;11.684;2022-09-09T06:45:13;18.30;99.90
23403;DHT22;11874;48.228;11.684;2022-09-09T06:47:42;18.30;99.90
23403;DHT22;11874;48.228;11.684;2022-09-09T06:50:27;18.30;99.90
23403;DHT22;11874;48.228;11.684;2022-09-09T06:56:34;18.30;99.90
23403;DHT22;11874;48.228;11.684;2022-09-09T07:02:33;18.30;99.90
23403;DHT22;11874;48.228;11.684;2022-09-09T07:05:31;18.40;99.90
23403;DHT22;11874;48.228;11.684;2022-09-09T07:08:39;18.40;99.90
23403;DHT22;11874;48.228;11.684;2022-09-09T07:11:38;18.40;99.90
23403;DHT22;11874;48.228;11.684;2022-09-09T07:14:35;18.50;99.90
23403;DHT22;11874;48.228;11.684;2022-09-09T07:17:33;18.50;99.90
23403;DHT22;11874;48.228;11.684;2022-09-09T07:20:06;18.50;99.90
23403;DHT22;11874;48.228;11.684;2022-09-09T07:23:00;18.50;99.90
23403;DHT22;11874;48.228;11.684;2022-09-09T07:25:37;18.60;99.90
23403;DHT22;11874;48.228;11.684;2022-09-09T07:28:32;18.50;99.90
23403;DHT22;11874;48.228;11.684;2022-09-09T07:31:28;18.60;99.90
23403;DHT22;11874;48.228;11.684;2022-09-09T07:34:38;18.50;99.90
23403;DHT22;11874;48.228;11.684;2022-09-09T07:37:22;18.50;99.90
23403;DHT22;11874;48.228;11.684;2022-09-09T07:46:54;18.40;99.90
23403;DHT22;11874;48.228;11.684;2022-09-09T07:49:44;18.40;99.90
23403;DHT22;11874;48.228;11.684;2022-09-09T07:52:41;18.40;99.90
23403;DHT22;11874;48.228;11.684;2022-09-09T07:55:30;18.30;99.90
23403;DHT22;11874;48.228;11.684;2022-09-09T07:58:49;18.40;99.90
23403;DHT22;11874;48.228;11.684;2022-09-09T08:17:43;18.50;99.90
23403;DHT22;11874;48.228;11.684;2022-09-09T08:20:38;18.50;99.90
23403;DHT22;11874;48.228;11.684;2022-09-09T08:23:37;18.50;99.90
23403;DHT22;11874;48.228;11.684;2022-09-09T08:28:08;18.50;99.90
23403;DHT22;11874;48.228;11.684;2022-09-09T08:30:06;18.50;99.90
23403;DHT22;11874;48.228;11.684;2022-09-09T08:32:58;18.60;99.90
23403;DHT22;11874;48.228;11.684;2022-09-09T08:35:52;18.60;99.90
23403;DHT22;11874;48.228;11.684;2022-09-09T14:56:55;19.90;99.90
23403;DHT22;11874;48.228;11.684;2022-09-09T14:59:23;19.80;99.90
23403;DHT22;11874;48.228;11.684;2022-09-09T15:01:51;19.80;99.90
23403;DHT22;11874;48.228;11.684;2022-09-09T15:04:19;19.80;99.90
23403;DHT22;11874;48.228;11.684;2022-09-09T15:06:47;19.70;99.90
23403;DHT22;11874;48.228;11.684;2022-09-09T15:09:16;19.80;99.90
23403;DHT22;11874;48.228;11.684;2022-09-09T15:11:44;19.70;99.90
23403;DHT22;11874;48.228;11.684;2022-09-09T15:14:12;19.70;99.90
23403;DHT22;11874;48.228;11.684;2022-09-09T15:16:40;19.70;99.90
23403;DHT22;11874;48.228;11.684;2022-09-09T15:19:08;19.70;99.90
23403;DHT22;11874;48.228;11.684;2022-09-09T15:21:37;19.70;99.90
23403;DHT22;11874;48.228;11.684;2022-09-09T15:24:07;19.60;99.90
23403;DHT22;11874;48.228;11.684;2022-09-09T15:26:35;19.60;99.90
23403;DHT22;11874;48.228;11.684;2022-09-09T15:29:05;19.70;99.90
23403;DHT22;11874;48.228;11.684;2022-09-09T15:31:35;19.70;99.90
23403;DHT22;11874;48.228;11.684;2022-09-09T15:34:04;19.70;99.90
23403;DHT22;11874;48.228;11.684;2022-09-09T15:36:33;19.60;99.90
23403;DHT22;11874;48.228;11.684;2022-09-09T15:39:02;19.70;99.90
23403;DHT22;11874;48.228;11.684;2022-09-09T15:41:30;19.70;99.90
23403;DHT22;11874;48.228;11.684;2022-09-09T15:43:59;19.70;99.90
23403;DHT22;11874;48.228;11.684;2022-09-09T15:46:28;19.70;99.90
23403;DHT22;11874;48.228;11.684;2022-09-09T15:48:58;20.00;99.90
23403;DHT22;11874;48.228;11.684;2022-09-09T15:51:26;20.10;99.90
23403;DHT22;11874;48.228;11.684;2022-09-09T15:54:09;20.20;99.90
23403;DHT22;11874;48.228;11.684;2022-09-09T15:56:37;20.20;99.90
23403;DHT22;11874;48.228;11.684;2022-09-09T15:59:04;20.30;99.90
23403;DHT22;11874;48.228;11.684;2022-09-09T16:01:32;20.60;99.90
23403;DHT22;11874;48.228;11.684;2022-09-09T16:04:02;20.80;99.90
23403;DHT22;11874;48.228;11.684;2022-09-09T16:06:30;21.10;99.90
23403;DHT22;11874;48.228;11.684;2022-09-09T16:08:58;21.20;99.90
23403;DHT22;11874;48.228;11.684;2022-09-09T16:11:28;21.40;99.90
23403;DHT22;11874;48.228;11.684;2022-09-09T16:13:57;21.40;99.30
23403;DHT22;11874;48.228;11.684;2022-09-09T16:16:26;21.20;98.70
23403;DHT22;11874;48.228;11.684;2022-09-09T16:18:54;21.10;98.90
23403;DHT22;11874;48.228;11.684;2022-09-09T16:21:25;20.90;98.80
23403;DHT22;11874;48.228;11.684;2022-09-09T16:23:57;20.80;98.60
23403;DHT22;11874;48.228;11.684;2022-09-09T16:26:26;20.60;98.60
23403;DHT22;11874;48.228;11.684;2022-09-09T16:28:54;20.60;98.70
23403;DHT22;11874;48.228;11.684;2022-09-09T16:31:22;20.50;98.80
23403;DHT22;11874;48.228;11.684;2022-09-09T16:33:50;20.40;98.90
23403;DHT22;11874;48.228;11.684;2022-09-09T16:36:19;20.50;99.00
23403;DHT22;11874;48.228;11.684;2022-09-09T16:38:51;20.60;99.00
23403;DHT22;11874;48.228;11.684;2022-09-09T16:41:20;20.70;98.90
23403;DHT22;11874;48.228;11.684;2022-09-09T16:43:51;20.80;98.60
23403;DHT22;11874;48.228;11.684;2022-09-09T16:46:19;20.90;98.60
23403;DHT22;11874;48.228;11.684;2022-09-09T16:48:48;20.90;98.30
23403;DHT22;11874;48.228;11.684;2022-09-09T16:51:17;21.00;98.20
23403;DHT22;11874;48.228;11.684;2022-09-09T16:53:45;20.90;98.00
23403;DHT22;11874;48.228;11.684;2022-09-09T16:56:14;20.90;98.10
23403;DHT22;11874;48.228;11.684;2022-09-09T16:58:43;20.80;97.70
23403;DHT22;11874;48.228;11.684;2022-09-09T17:01:11;20.70;97.80
23403;DHT22;11874;48.228;11.684;2022-09-09T17:03:40;20.60;97.90
23403;DHT22;11874;48.228;11.684;2022-09-09T17:06:08;20.50;98.00
23403;DHT22;11874;48.228;11.684;2022-09-09T17:08:36;20.40;98.10
23403;DHT22;11874;48.228;11.684;2022-09-09T17:11:10;20.30;98.10
23403;DHT22;11874;48.228;11.684;2022-09-09T17:13:41;20.20;98.10
23403;DHT22;11874;48.228;11.684;2022-09-09T17:16:09;20.10;98.10
23403;DHT22;11874;48.228;11.684;2022-09-09T17:18:37;20.10;98.00
23403;DHT22;11874;48.228;11.684;2022-09-09T17:21:05;20.00;97.90
23403;DHT22;11874;48.228;11.684;2022-09-09T17:23:34;19.90;97.80
23403;DHT22;11874;48.228;11.684;2022-09-09T17:26:04;19.90;97.90
23403;DHT22;11874;48.228;11.684;2022-09-09T17:28:32;19.80;97.80
23403;DHT22;11874;48.228;11.684;2022-09-09T17:31:01;19.80;97.90
23403;DHT22;11874;48.228;11.684;2022-09-09T17:33:31;19.80;98.00
23403;DHT22;11874;48.228;11.684;2022-09-09T17:36:00;19.70;98.00
23403;DHT22;11874;48.228;11.684;2022-09-09T17:38:28;19.70;98.10
23403;DHT22;11874;48.228;11.684;2022-09-09T17:41:02;19.60;98.20
23403;DHT22;11874;48.228;11.684;2022-09-09T17:43:30;19.60;98.40
23403;DHT22;11874;48.228;11.684;2022-09-09T17:46:06;19.50;98.30
23403;DHT22;11874;48.228;11.684;2022-09-09T17:48:34;19.50;98.70
23403;DHT22;11874;48.228;11.684;2022-09-09T17:51:03;19.50;98.40
23403;DHT22;11874;48.228;11.684;2022-09-09T17:53:35;19.50;98.40
23403;DHT22;11874;48.228;11.684;2022-09-09T17:56:03;19.40;98.40
23403;DHT22;11874;48.228;11.684;2022-09-09T17:58:31;19.40;98.50
23403;DHT22;11874;48.228;11.684;2022-09-09T18:01:03;19.40;98.60
23403;DHT22;11874;48.228;11.684;2022-09-09T18:03:34;19.30;98.60
23403;DHT22;11874;48.228;11.684;2022-09-09T18:06:02;19.30;98.70
23403;DHT22;11874;48.228;11.684;2022-09-09T18:08:31;19.20;98.90
23403;DHT22;11874;48.228;11.684;2022-09-09T18:11:02;19.20;99.20
23403;DHT22;11874;48.228;11.684;2022-09-09T18:13:34;19.20;99.30
23403;DHT22;11874;48.228;11.684;2022-09-09T18:16:05;19.10;99.40
23403;DHT22;11874;48.228;11.684;2022-09-09T18:18:35;19.10;99.60
23403;DHT22;11874;48.228;11.684;2022-09-09T18:21:03;19.10;99.80
23403;DHT22;11874;48.228;11.684;2022-09-09T18:23:33;19.10;99.90
23403;DHT22;11874;48.228;11.684;2022-09-09T18:26:05;19.10;99.90
23403;DHT22;11874;48.228;11.684;2022-09-09T18:28:35;19.00;99.90
23403;DHT22;11874;48.228;11.684;2022-09-09T18:31:04;19.00;99.90
23403;DHT22;11874;48.228;11.684;2022-09-09T18:33:34;19.00;99.90
23403;DHT22;11874;48.228;11.684;2022-09-09T18:36:03;18.90;99.90
23403;DHT22;11874;48.228;11.684;2022-09-09T18:38:31;18.90;99.90
23403;DHT22;11874;48.228;11.684;2022-09-09T18:40:59;18.90;99.90
23403;DHT22;11874;48.228;11.684;2022-09-09T18:43:28;18.80;99.90
23403;DHT22;11874;48.228;11.684;2022-09-09T18:46:01;18.80;99.90
23403;DHT22;11874;48.228;11.684;2022-09-09T18:48:31;18.80;99.90
23403;DHT22;11874;48.228;11.684;2022-09-09T18:51:01;18.80;99.90
23403;DHT22;11874;48.228;11.684;2022-09-09T18:53:29;18.80;99.90
23403;DHT22;11874;48.228;11.684;2022-09-09T18:55:57;18.70;99.90
23403;DHT22;11874;48.228;11.684;2022-09-09T18:58:27;18.70;99.90
23403;DHT22;11874;48.228;11.684;2022-09-09T19:00:55;18.70;99.90
23403;DHT22;11874;48.228;11.684;2022-09-09T19:03:23;18.60;99.90
23403;DHT22;11874;48.228;11.684;2022-09-09T19:05:51;18.60;99.90
23403;DHT22;11874;48.228;11.684;2022-09-09T19:08:20;18.60;99.90
23403;DHT22;11874;48.228;11.684;2022-09-09T19:10:48;18.60;99.90
23403;DHT22;11874;48.228;11.684;2022-09-09T19:13:15;18.60;99.90
23403;DHT22;11874;48.228;11.684;2022-09-09T19:15:43;18.60;99.90
23403;DHT22;11874;48.228;11.684;2022-09-09T19:18:14;18.60;99.90
23403;DHT22;11874;48.228;11.684;2022-09-09T19:20:53;18.60;99.90
23403;DHT22;11874;48.228;11.684;2022-09-09T19:23:23;18.60;99.90
23403;DHT22;11874;48.228;11.684;2022-09-09T19:25:56;18.70;99.90
23403;DHT22;11874;48.228;11.684;2022-09-09T19:28:28;18.60;99.90
23403;DHT22;11874;48.228;11.684;2022-09-09T19:30:55;18.70;99.90
23403;DHT22;11874;48.228;11.684;2022-09-09T19:33:28;18.80;99.90
23403;DHT22;11874;48.228;11.684;2022-09-09T19:35:57;18.70;99.90
23403;DHT22;11874;48.228;11.684;2022-09-09T19:38:26;18.70;99.90
23403;DHT22;11874;48.228;11.684;2022-09-09T19:40:53;18.60;99.90
23403;DHT22;11874;48.228;11.684;2022-09-09T19:43:23;18.60;99.90
23403;DHT22;11874;48.228;11.684;2022-09-09T19:45:57;18.60;99.90
23403;DHT22;11874;48.228;11.684;2022-09-09T19:48:24;18.50;99.90
23403;DHT22;11874;48.228;11.684;2022-09-09T19:50:53;18.50;99.90
23403;DHT22;11874;48.228;11.684;2022-09-09T19:53:20;18.50;99.90
23403;DHT22;11874;48.228;11.684;2022-09-09T19:55:49;18.40;99.90
23403;DHT22;11874;48.228;11.684;2022-09-09T19:58:17;18.40;99.90
23403;DHT22;11874;48.228;11.684;2022-09-09T20:00:45;18.40;99.90
23403;DHT22;11874;48.228;11.684;2022-09-09T20:03:13;18.50;99.90
23403;DHT22;11874;48.228;11.684;2022-09-09T20:05:45;18.40;99.90
23403;DHT22;11874;48.228;11.684;2022-09-09T20:08:14;18.30;99.90
23403;DHT22;11874;48.228;11.684;2022-09-09T20:10:50;18.30;99.90
23403;DHT22;11874;48.228;11.684;2022-09-09T20:13:18;18.30;99.90
23403;DHT22;11874;48.228;11.684;2022-09-09T20:15:54;18.20;99.90
23403;DHT22;11874;48.228;11.684;2022-09-09T20:18:22;18.20;99.90
23403;DHT22;11874;48.228;11.684;2022-09-09T20:20:50;18.20;99.90
23403;DHT22;11874;48.228;11.684;2022-09-09T20:23:17;18.20;99.90
23403;DHT22;11874;48.228;11.684;2022-09-09T20:25:45;18.20;99.90
23403;DHT22;11874;48.228;11.684;2022-09-09T20:28:14;18.20;99.90
23403;DHT22;11874;48.228;11.684;2022-09-09T20:30:42;18.10;99.90
23403;DHT22;11874;48.228;11.684;2022-09-09T20:33:10;18.00;99.90
23403;DHT22;11874;48.228;11.684;2022-09-09T20:35:38;18.00;99.90
23403;DHT22;11874;48.228;11.684;2022-09-09T20:38:06;18.00;99.90
23403;DHT22;11874;48.228;11.684;2022-09-09T20:40:34;18.00;99.90
23403;DHT22;11874;48.228;11.684;2022-09-09T20:43:02;17.90;99.90
23403;DHT22;11874;48.228;11.684;2022-09-09T20:45:33;18.00;99.90
23403;DHT22;11874;48.228;11.684;2022-09-09T20:48:02;18.00;99.90
23403;DHT22;11874;48.228;11.684;2022-09-09T20:50:30;18.00;99.90
23403;DHT22;11874;48.228;11.684;2022-09-09T20:52:57;17.90;99.90
23403;DHT22;11874;48.228;11.684;2022-09-09T20:55:25;18.00;99.90
23403;DHT22;11874;48.228;11.684;2022-09-09T20:57:53;17.80;99.90
23403;DHT22;11874;48.228;11.684;2022-09-09T21:00:23;17.80;99.90
23403;DHT22;11874;48.228;11.684;2022-09-09T21:02:52;17.80;99.90
23403;DHT22;11874;48.228;11.684;2022-09-09T21:05:20;17.80;99.90
23403;DHT22;11874;48.228;11.684;2022-09-09T21:07:49;17.80;99.90
23403;DHT22;11874;48.228;11.684;2022-09-09T21:10:17;17.70;99.90
23403;DHT22;11874;48.228;11.684;2022-09-09T21:12:45;17.70;99.90
23403;DHT22;11874;48.228;11.684;2022-09-09T21:15:14;17.70;99.90
23403;DHT22;11874;48.228;11.684;2022-09-09T21:17:42;17.70;99.90
23403;DHT22;11874;48.228;11.684;2022-09-09T21:20:11;17.70;99.90
23403;DHT22;11874;48.228;11.684;2022-09-09T21:22:39;17.70;99.90
23403;DHT22;11874;48.228;11.684;2022-09-09T21:25:07;17.70;99.90
23403;DHT22;11874;48.228;11.684;2022-09-09T21:27:35;17.70;99.90
23403;DHT22;11874;48.228;11.684;2022-09-09T21:30:03;17.70;99.90
23403;DHT22;11874;48.228;11.684;2022-09-09T21:32:31;17.70;99.90
23403;DHT22;11874;48.228;11.684;2022-09-09T21:34:58;17.70;99.90
23403;DHT22;11874;48.228;11.684;2022-09-09T21:37:28;17.70;99.90
23403;DHT22;11874;48.228;11.684;2022-09-09T21:39:55;17.70;99.90
23403;DHT22;11874;48.228;11.684;2022-09-09T21:42:23;17.70;99.90
23403;DHT22;11874;48.228;11.684;2022-09-09T21:44:51;17.70;99.90
23403;DHT22;11874;48.228;11.684;2022-09-09T21:47:18;17.70;99.90
23403;DHT22;11874;48.228;11.684;2022-09-09T21:49:46;17.70;99.90
23403;DHT22;11874;48.228;11.684;2022-09-09T21:52:14;17.70;99.90
23403;DHT22;11874;48.228;11.684;2022-09-09T21:54:43;17.70;99.90
23403;DHT22;11874;48.228;11.684;2022-09-09T21:57:11;17.70;99.90
23403;DHT22;11874;48.228;11.684;2022-09-09T21:59:39;17.70;99.90
23403;DHT22;11874;48.228;11.684;2022-09-09T22:02:07;17.70;99.90
23403;DHT22;11874;48.228;11.684;2022-09-09T22:04:36;17.80;99.90
23403;DHT22;11874;48.228;11.684;2022-09-09T22:07:05;17.80;99.90
23403;DHT22;11874;48.228;11.684;2022-09-09T22:09:33;17.80;99.90
23403;DHT22;11874;48.228;11.684;2022-09-09T22:12:02;17.80;99.90
23403;DHT22;11874;48.228;11.684;2022-09-09T22:14:30;17.80;99.90
23403;DHT22;11874;48.228;11.684;2022-09-09T22:17:00;17.80;99.90
23403;DHT22;11874;48.228;11.684;2022-09-09T22:19:28;17.80;99.90
23403;DHT22;11874;48.228;11.684;2022-09-09T22:21:55;17.70;99.90
23403;DHT22;11874;48.228;11.684;2022-09-09T22:24:23;17.70;99.90
23403;DHT22;11874;48.228;11.684;2022-09-09T22:26:52;17.80;99.90
23403;DHT22;11874;48.228;11.684;2022-09-09T22:29:22;17.80;99.90
23403;DHT22;11874;48.228;11.684;2022-09-09T22:31:49;17.80;99.90
23403;DHT22;11874;48.228;11.684;2022-09-09T22:34:21;17.80;99.90
23403;DHT22;11874;48.228;11.684;2022-09-09T22:36:49;17.80;99.90
23403;DHT22;11874;48.228;11.684;2022-09-09T22:39:16;17.70;99.90
23403;DHT22;11874;48.228;11.684;2022-09-09T22:41:44;17.70;99.90
23403;DHT22;11874;48.228;11.684;2022-09-09T22:44:13;17.70;99.90
23403;DHT22;11874;48.228;11.684;2022-09-09T22:46:42;17.70;99.90
23403;DHT22;11874;48.228;11.684;2022-09-09T22:49:11;17.70;99.90
23403;DHT22;11874;48.228;11.684;2022-09-09T22:51:39;17.50;99.90
23403;DHT22;11874;48.228;11.684;2022-09-09T22:54:06;17.60;99.90
23403;DHT22;11874;48.228;11.684;2022-09-09T22:56:34;17.70;99.90
23403;DHT22;11874;48.228;11.684;2022-09-09T22:59:02;17.70;99.90
23403;DHT22;11874;48.228;11.684;2022-09-09T23:01:29;17.60;99.90
23403;DHT22;11874;48.228;11.684;2022-09-09T23:03:58;17.60;99.90
23403;DHT22;11874;48.228;11.684;2022-09-09T23:06:28;17.60;99.90
23403;DHT22;11874;48.228;11.684;2022-09-09T23:08:57;17.60;99.90
23403;DHT22;11874;48.228;11.684;2022-09-09T23:11:26;17.60;99.90
23403;DHT22;11874;48.228;11.684;2022-09-09T23:13:58;17.50;99.90
23403;DHT22;11874;48.228;11.684;2022-09-09T23:16:27;17.50;99.90
23403;DHT22;11874;48.228;11.684;2022-09-09T23:18:54;17.50;99.90
23403;DHT22;11874;48.228;11.684;2022-09-09T23:21:23;17.50;99.90
23403;DHT22;11874;48.228;11.684;2022-09-09T23:23:54;17.40;99.90
23403;DHT22;11874;48.228;11.684;2022-09-09T23:26:22;17.40;99.90
23403;DHT22;11874;48.228;11.684;2022-09-09T23:28:50;17.40;99.90
23403;DHT22;11874;48.228;11.684;2022-09-09T23:31:18;17.40;99.90
23403;DHT22;11874;48.228;11.684;2022-09-09T23:33:47;17.40;99.90
23403;DHT22;11874;48.228;11.684;2022-09-09T23:36:15;17.30;99.90
23403;DHT22;11874;48.228;11.684;2022-09-09T23:38:45;17.30;99.90
23403;DHT22;11874;48.228;11.684;2022-09-09T23:41:14;17.30;99.90
23403;DHT22;11874;48.228;11.684;2022-09-09T23:43:44;17.20;99.90
23403;DHT22;11874;48.228;11.684;2022-09-09T23:46:13;17.20;99.90
23403;DHT22;11874;48.228;11.684;2022-09-09T23:48:41;17.20;99.90
23403;DHT22;11874;48.228;11.684;2022-09-09T23:51:09;17.10;99.90
23403;DHT22;11874;48.228;11.684;2022-09-09T23:53:38;17.10;99.90
23403;DHT22;11874;48.228;11.684;2022-09-09T23:56:08;17.10;99.90
23403;DHT22;11874;48.228;11.684;2022-09-09T23:58:35;17.10;99.90
